sensor_id;sensor_type;location;lat;lon;timestamp;P1;durP1;ratioP1;P2;durP2;ratioP2
85265;SDS011;75676;49.522;19.724;2024-03-07T00:00:44;15.20;;;7.22;;
85265;SDS011;75676;49.522;19.724;2024-03-07T00:03:30;14.93;;;6.40;;
85265;SDS011;75676;49.522;19.724;2024-03-07T00:05:55;14.80;;;6.50;;
85265;SDS011;75676;49.522;19.724;2024-03-07T00:08:22;12.98;;;6.50;;
85265;SDS011;75676;49.522;19.724;2024-03-07T00:10:47;16.77;;;7.60;;
85265;SDS011;75676;49.522;19.724;2024-03-07T00:13:14;18.58;;;8.20;;
85265;SDS011;75676;49.522;19.724;2024-03-07T00:15:40;15.65;;;6.65;;
85265;SDS011;75676;49.522;19.724;2024-03-07T00:18:06;18.42;;;7.75;;
85265;SDS011;75676;49.522;19.724;2024-03-07T00:20:32;13.20;;;7.05;;
85265;SDS011;75676;49.522;19.724;2024-03-07T00:22:58;15.48;;;7.30;;
85265;SDS011;75676;49.522;19.724;2024-03-07T00:25:24;13.15;;;6.50;;
85265;SDS011;75676;49.522;19.724;2024-03-07T00:27:49;16.80;;;6.88;;
85265;SDS011;75676;49.522;19.724;2024-03-07T00:30:18;14.52;;;6.90;;
85265;SDS011;75676;49.522;19.724;2024-03-07T00:32:46;13.32;;;6.43;;
85265;SDS011;75676;49.522;19.724;2024-03-07T00:35:12;15.48;;;7.20;;
85265;SDS011;75676;49.522;19.724;2024-03-07T00:37:38;20.02;;;8.68;;
85265;SDS011;75676;49.522;19.724;2024-03-07T00:40:04;15.73;;;7.93;;
85265;SDS011;75676;49.522;19.724;2024-03-07T00:42:31;22.38;;;10.48;;
85265;SDS011;75676;49.522;19.724;2024-03-07T00:44:57;19.65;;;8.45;;
85265;SDS011;75676;49.522;19.724;2024-03-07T00:47:23;21.23;;;8.32;;
85265;SDS011;75676;49.522;19.724;2024-03-07T00:49:49;20.73;;;8.48;;
85265;SDS011;75676;49.522;19.724;2024-03-07T00:52:15;16.40;;;7.82;;
85265;SDS011;75676;49.522;19.724;2024-03-07T00:54:41;16.52;;;7.57;;
85265;SDS011;75676;49.522;19.724;2024-03-07T00:57:07;19.77;;;7.90;;
85265;SDS011;75676;49.522;19.724;2024-03-07T00:59:34;14.63;;;6.53;;
85265;SDS011;75676;49.522;19.724;2024-03-07T01:02:00;17.40;;;6.78;;
85265;SDS011;75676;49.522;19.724;2024-03-07T01:04:26;12.93;;;6.53;;
85265;SDS011;75676;49.522;19.724;2024-03-07T01:06:59;12.55;;;6.45;;
85265;SDS011;75676;49.522;19.724;2024-03-07T01:09:26;12.48;;;5.05;;
85265;SDS011;75676;49.522;19.724;2024-03-07T01:11:53;11.30;;;4.95;;
85265;SDS011;75676;49.522;19.724;2024-03-07T01:14:20;9.82;;;5.55;;
85265;SDS011;75676;49.522;19.724;2024-03-07T01:16:47;8.95;;;4.68;;
85265;SDS011;75676;49.522;19.724;2024-03-07T01:19:13;11.98;;;5.75;;
85265;SDS011;75676;49.522;19.724;2024-03-07T01:21:40;12.55;;;5.20;;
85265;SDS011;75676;49.522;19.724;2024-03-07T01:24:06;9.77;;;5.50;;
85265;SDS011;75676;49.522;19.724;2024-03-07T01:26:32;11.93;;;5.28;;
85265;SDS011;75676;49.522;19.724;2024-03-07T01:29:01;8.90;;;4.05;;
85265;SDS011;75676;49.522;19.724;2024-03-07T01:31:26;9.10;;;4.45;;
85265;SDS011;75676;49.522;19.724;2024-03-07T01:33:53;9.43;;;4.72;;
85265;SDS011;75676;49.522;19.724;2024-03-07T01:36:19;10.15;;;4.65;;
85265;SDS011;75676;49.522;19.724;2024-03-07T01:38:48;9.82;;;4.65;;
85265;SDS011;75676;49.522;19.724;2024-03-07T01:41:13;8.63;;;4.50;;
85265;SDS011;75676;49.522;19.724;2024-03-07T01:43:42;9.40;;;4.80;;
85265;SDS011;75676;49.522;19.724;2024-03-07T01:46:08;11.95;;;4.72;;
85265;SDS011;75676;49.522;19.724;2024-03-07T01:48:35;7.95;;;3.72;;
85265;SDS011;75676;49.522;19.724;2024-03-07T01:51:02;9.27;;;4.32;;
85265;SDS011;75676;49.522;19.724;2024-03-07T01:53:31;6.22;;;3.50;;
85265;SDS011;75676;49.522;19.724;2024-03-07T01:55:59;10.05;;;4.25;;
85265;SDS011;75676;49.522;19.724;2024-03-07T01:58:25;8.18;;;3.85;;
85265;SDS011;75676;49.522;19.724;2024-03-07T02:00:51;7.20;;;4.05;;
85265;SDS011;75676;49.522;19.724;2024-03-07T02:03:17;6.65;;;3.40;;
85265;SDS011;75676;49.522;19.724;2024-03-07T02:05:43;7.30;;;3.13;;
85265;SDS011;75676;49.522;19.724;2024-03-07T02:08:10;8.23;;;4.38;;
85265;SDS011;75676;49.522;19.724;2024-03-07T02:13:11;7.20;;;3.35;;
85265;SDS011;75676;49.522;19.724;2024-03-07T02:15:37;7.90;;;3.70;;
85265;SDS011;75676;49.522;19.724;2024-03-07T02:18:03;9.38;;;3.67;;
85265;SDS011;75676;49.522;19.724;2024-03-07T02:20:29;6.97;;;3.00;;
85265;SDS011;75676;49.522;19.724;2024-03-07T02:22:55;5.78;;;3.40;;
85265;SDS011;75676;49.522;19.724;2024-03-07T02:25:21;7.38;;;3.42;;
85265;SDS011;75676;49.522;19.724;2024-03-07T02:27:47;4.93;;;2.55;;
85265;SDS011;75676;49.522;19.724;2024-03-07T02:30:13;3.78;;;2.47;;
85265;SDS011;75676;49.522;19.724;2024-03-07T02:32:39;5.35;;;2.92;;
85265;SDS011;75676;49.522;19.724;2024-03-07T02:35:05;5.88;;;2.97;;
85265;SDS011;75676;49.522;19.724;2024-03-07T02:37:32;4.30;;;2.55;;
85265;SDS011;75676;49.522;19.724;2024-03-07T02:39:58;7.53;;;3.45;;
85265;SDS011;75676;49.522;19.724;2024-03-07T02:42:25;5.47;;;2.60;;
85265;SDS011;75676;49.522;19.724;2024-03-07T02:44:51;5.60;;;2.47;;
85265;SDS011;75676;49.522;19.724;2024-03-07T02:47:18;6.70;;;3.10;;
85265;SDS011;75676;49.522;19.724;2024-03-07T02:49:44;7.95;;;3.15;;
85265;SDS011;75676;49.522;19.724;2024-03-07T02:52:10;6.43;;;3.13;;
85265;SDS011;75676;49.522;19.724;2024-03-07T02:54:36;6.05;;;2.63;;
85265;SDS011;75676;49.522;19.724;2024-03-07T02:57:02;7.75;;;3.25;;
85265;SDS011;75676;49.522;19.724;2024-03-07T02:59:28;5.95;;;2.92;;
85265;SDS011;75676;49.522;19.724;2024-03-07T03:01:53;6.68;;;3.03;;
85265;SDS011;75676;49.522;19.724;2024-03-07T03:04:20;5.22;;;3.25;;
85265;SDS011;75676;49.522;19.724;2024-03-07T03:06:46;8.63;;;3.60;;
85265;SDS011;75676;49.522;19.724;2024-03-07T03:09:13;5.72;;;2.85;;
85265;SDS011;75676;49.522;19.724;2024-03-07T03:11:43;5.68;;;3.53;;
85265;SDS011;75676;49.522;19.724;2024-03-07T03:14:10;5.80;;;2.78;;
85265;SDS011;75676;49.522;19.724;2024-03-07T03:16:40;7.40;;;3.60;;
85265;SDS011;75676;49.522;19.724;2024-03-07T03:19:07;7.63;;;3.88;;
85265;SDS011;75676;49.522;19.724;2024-03-07T03:21:34;6.07;;;3.08;;
85265;SDS011;75676;49.522;19.724;2024-03-07T03:24:00;6.90;;;4.00;;
85265;SDS011;75676;49.522;19.724;2024-03-07T03:26:28;10.02;;;3.80;;
85265;SDS011;75676;49.522;19.724;2024-03-07T03:28:53;8.68;;;4.20;;
85265;SDS011;75676;49.522;19.724;2024-03-07T03:31:19;4.55;;;2.53;;
85265;SDS011;75676;49.522;19.724;2024-03-07T03:33:45;8.32;;;3.30;;
85265;SDS011;75676;49.522;19.724;2024-03-07T03:36:11;6.88;;;3.67;;
85265;SDS011;75676;49.522;19.724;2024-03-07T03:38:37;6.07;;;3.53;;
85265;SDS011;75676;49.522;19.724;2024-03-07T03:41:03;4.82;;;2.88;;
85265;SDS011;75676;49.522;19.724;2024-03-07T03:43:30;8.38;;;4.00;;
85265;SDS011;75676;49.522;19.724;2024-03-07T03:45:55;7.05;;;3.58;;
85265;SDS011;75676;49.522;19.724;2024-03-07T03:48:21;7.45;;;3.40;;
85265;SDS011;75676;49.522;19.724;2024-03-07T03:50:47;7.57;;;3.58;;
85265;SDS011;75676;49.522;19.724;2024-03-07T03:53:13;7.32;;;3.60;;
85265;SDS011;75676;49.522;19.724;2024-03-07T03:55:39;8.60;;;4.05;;
85265;SDS011;75676;49.522;19.724;2024-03-07T03:58:04;6.55;;;3.28;;
85265;SDS011;75676;49.522;19.724;2024-03-07T04:00:33;7.03;;;3.60;;
85265;SDS011;75676;49.522;19.724;2024-03-07T04:02:59;5.43;;;3.20;;
85265;SDS011;75676;49.522;19.724;2024-03-07T04:05:24;8.55;;;3.53;;
85265;SDS011;75676;49.522;19.724;2024-03-07T04:07:50;7.65;;;3.50;;
85265;SDS011;75676;49.522;19.724;2024-03-07T04:10:16;7.72;;;3.60;;
85265;SDS011;75676;49.522;19.724;2024-03-07T04:12:43;7.82;;;3.90;;
85265;SDS011;75676;49.522;19.724;2024-03-07T04:15:10;4.63;;;2.90;;
85265;SDS011;75676;49.522;19.724;2024-03-07T04:20:07;6.63;;;3.47;;
85265;SDS011;75676;49.522;19.724;2024-03-07T04:22:35;7.05;;;3.40;;
85265;SDS011;75676;49.522;19.724;2024-03-07T04:25:06;6.28;;;3.67;;
85265;SDS011;75676;49.522;19.724;2024-03-07T04:27:32;5.80;;;2.35;;
85265;SDS011;75676;49.522;19.724;2024-03-07T04:30:02;6.22;;;2.80;;
85265;SDS011;75676;49.522;19.724;2024-03-07T04:32:30;5.82;;;2.95;;
85265;SDS011;75676;49.522;19.724;2024-03-07T04:34:56;5.78;;;3.05;;
85265;SDS011;75676;49.522;19.724;2024-03-07T04:37:25;8.60;;;3.63;;
85265;SDS011;75676;49.522;19.724;2024-03-07T04:39:52;10.05;;;3.75;;
85265;SDS011;75676;49.522;19.724;2024-03-07T04:42:18;6.53;;;3.40;;
85265;SDS011;75676;49.522;19.724;2024-03-07T04:44:44;9.23;;;4.40;;
85265;SDS011;75676;49.522;19.724;2024-03-07T04:47:10;10.93;;;3.97;;
85265;SDS011;75676;49.522;19.724;2024-03-07T04:49:36;8.27;;;3.90;;
85265;SDS011;75676;49.522;19.724;2024-03-07T04:52:02;8.43;;;4.53;;
85265;SDS011;75676;49.522;19.724;2024-03-07T04:54:29;10.25;;;5.05;;
85265;SDS011;75676;49.522;19.724;2024-03-07T04:56:57;14.45;;;5.88;;
85265;SDS011;75676;49.522;19.724;2024-03-07T04:59:23;10.10;;;4.55;;
85265;SDS011;75676;49.522;19.724;2024-03-07T05:01:49;9.10;;;4.63;;
85265;SDS011;75676;49.522;19.724;2024-03-07T05:04:15;14.45;;;5.30;;
85265;SDS011;75676;49.522;19.724;2024-03-07T05:06:42;10.75;;;5.95;;
85265;SDS011;75676;49.522;19.724;2024-03-07T05:09:09;12.80;;;5.22;;
85265;SDS011;75676;49.522;19.724;2024-03-07T05:11:48;12.57;;;6.28;;
85265;SDS011;75676;49.522;19.724;2024-03-07T05:14:15;11.77;;;5.38;;
85265;SDS011;75676;49.522;19.724;2024-03-07T05:16:41;10.35;;;4.25;;
85265;SDS011;75676;49.522;19.724;2024-03-07T05:19:08;15.63;;;6.47;;
85265;SDS011;75676;49.522;19.724;2024-03-07T05:21:34;13.50;;;5.82;;
85265;SDS011;75676;49.522;19.724;2024-03-07T05:24:07;13.98;;;5.95;;
85265;SDS011;75676;49.522;19.724;2024-03-07T05:26:33;18.75;;;7.85;;
85265;SDS011;75676;49.522;19.724;2024-03-07T05:29:02;17.63;;;7.00;;
85265;SDS011;75676;49.522;19.724;2024-03-07T05:31:36;18.85;;;8.57;;
85265;SDS011;75676;49.522;19.724;2024-03-07T05:34:03;14.90;;;7.03;;
85265;SDS011;75676;49.522;19.724;2024-03-07T05:36:35;17.77;;;7.40;;
85265;SDS011;75676;49.522;19.724;2024-03-07T05:39:02;19.55;;;8.57;;
85265;SDS011;75676;49.522;19.724;2024-03-07T05:41:36;18.25;;;7.85;;
85265;SDS011;75676;49.522;19.724;2024-03-07T05:44:03;21.88;;;9.48;;
85265;SDS011;75676;49.522;19.724;2024-03-07T05:46:33;14.93;;;7.00;;
85265;SDS011;75676;49.522;19.724;2024-03-07T05:49:00;17.77;;;7.88;;
85265;SDS011;75676;49.522;19.724;2024-03-07T05:51:26;21.15;;;9.80;;
85265;SDS011;75676;49.522;19.724;2024-03-07T05:53:52;18.20;;;7.70;;
85265;SDS011;75676;49.522;19.724;2024-03-07T05:56:18;20.00;;;8.75;;
85265;SDS011;75676;49.522;19.724;2024-03-07T05:58:45;24.15;;;10.43;;
85265;SDS011;75676;49.522;19.724;2024-03-07T06:01:10;16.73;;;8.27;;
85265;SDS011;75676;49.522;19.724;2024-03-07T06:03:37;28.30;;;11.20;;
85265;SDS011;75676;49.522;19.724;2024-03-07T06:06:03;21.92;;;7.50;;
85265;SDS011;75676;49.522;19.724;2024-03-07T06:08:32;17.70;;;7.28;;
85265;SDS011;75676;49.522;19.724;2024-03-07T06:10:58;25.92;;;10.10;;
85265;SDS011;75676;49.522;19.724;2024-03-07T06:13:24;26.48;;;10.43;;
85265;SDS011;75676;49.522;19.724;2024-03-07T06:15:50;27.05;;;10.02;;
85265;SDS011;75676;49.522;19.724;2024-03-07T06:18:16;29.05;;;13.07;;
85265;SDS011;75676;49.522;19.724;2024-03-07T06:20:42;32.40;;;12.18;;
85265;SDS011;75676;49.522;19.724;2024-03-07T06:23:09;27.13;;;11.93;;
85265;SDS011;75676;49.522;19.724;2024-03-07T06:25:37;39.25;;;16.25;;
85265;SDS011;75676;49.522;19.724;2024-03-07T06:28:13;21.63;;;9.38;;
85265;SDS011;75676;49.522;19.724;2024-03-07T06:30:40;21.50;;;9.75;;
85265;SDS011;75676;49.522;19.724;2024-03-07T06:33:08;28.13;;;10.95;;
85265;SDS011;75676;49.522;19.724;2024-03-07T06:35:35;26.75;;;10.57;;
85265;SDS011;75676;49.522;19.724;2024-03-07T06:38:04;23.23;;;8.32;;
85265;SDS011;75676;49.522;19.724;2024-03-07T06:40:31;25.88;;;10.30;;
85265;SDS011;75676;49.522;19.724;2024-03-07T06:43:01;31.27;;;10.68;;
85265;SDS011;75676;49.522;19.724;2024-03-07T06:45:29;33.83;;;11.45;;
85265;SDS011;75676;49.522;19.724;2024-03-07T06:47:56;29.63;;;10.77;;
85265;SDS011;75676;49.522;19.724;2024-03-07T06:50:22;25.67;;;10.50;;
85265;SDS011;75676;49.522;19.724;2024-03-07T06:52:48;32.30;;;10.75;;
85265;SDS011;75676;49.522;19.724;2024-03-07T06:55:18;20.45;;;10.10;;
85265;SDS011;75676;49.522;19.724;2024-03-07T06:57:44;25.23;;;10.05;;
85265;SDS011;75676;49.522;19.724;2024-03-07T07:00:14;26.35;;;9.88;;
85265;SDS011;75676;49.522;19.724;2024-03-07T07:02:47;26.17;;;10.65;;
85265;SDS011;75676;49.522;19.724;2024-03-07T07:05:14;26.33;;;10.35;;
85265;SDS011;75676;49.522;19.724;2024-03-07T07:07:46;27.33;;;11.25;;
85265;SDS011;75676;49.522;19.724;2024-03-07T07:10:13;25.27;;;10.00;;
85265;SDS011;75676;49.522;19.724;2024-03-07T07:12:49;36.60;;;12.38;;
85265;SDS011;75676;49.522;19.724;2024-03-07T07:15:17;41.38;;;14.30;;
85265;SDS011;75676;49.522;19.724;2024-03-07T07:17:44;36.08;;;12.75;;
85265;SDS011;75676;49.522;19.724;2024-03-07T07:20:12;44.38;;;18.63;;
85265;SDS011;75676;49.522;19.724;2024-03-07T07:22:42;24.67;;;11.05;;
85265;SDS011;75676;49.522;19.724;2024-03-07T07:25:08;31.15;;;12.02;;
85265;SDS011;75676;49.522;19.724;2024-03-07T07:27:44;34.25;;;13.52;;
85265;SDS011;75676;49.522;19.724;2024-03-07T07:30:14;35.65;;;13.38;;
85265;SDS011;75676;49.522;19.724;2024-03-07T07:32:41;26.45;;;11.05;;
85265;SDS011;75676;49.522;19.724;2024-03-07T07:35:08;44.28;;;14.82;;
85265;SDS011;75676;49.522;19.724;2024-03-07T07:37:47;48.67;;;16.90;;
85265;SDS011;75676;49.522;19.724;2024-03-07T07:40:15;37.10;;;14.10;;
85265;SDS011;75676;49.522;19.724;2024-03-07T07:42:46;45.05;;;18.02;;
85265;SDS011;75676;49.522;19.724;2024-03-07T07:45:14;37.15;;;12.82;;
85265;SDS011;75676;49.522;19.724;2024-03-07T07:47:41;49.03;;;15.07;;
85265;SDS011;75676;49.522;19.724;2024-03-07T07:50:12;41.53;;;16.77;;
85265;SDS011;75676;49.522;19.724;2024-03-07T07:52:42;38.25;;;15.35;;
85265;SDS011;75676;49.522;19.724;2024-03-07T07:55:11;40.03;;;13.48;;
85265;SDS011;75676;49.522;19.724;2024-03-07T07:57:44;50.05;;;18.08;;
85265;SDS011;75676;49.522;19.724;2024-03-07T08:00:14;51.97;;;17.95;;
85265;SDS011;75676;49.522;19.724;2024-03-07T08:02:55;41.33;;;15.10;;
85265;SDS011;75676;49.522;19.724;2024-03-07T08:05:23;35.83;;;12.85;;
85265;SDS011;75676;49.522;19.724;2024-03-07T08:07:50;37.60;;;15.10;;
85265;SDS011;75676;49.522;19.724;2024-03-07T08:10:17;43.25;;;14.65;;
85265;SDS011;75676;49.522;19.724;2024-03-07T08:12:45;47.50;;;15.93;;
85265;SDS011;75676;49.522;19.724;2024-03-07T08:15:11;40.08;;;16.17;;
85265;SDS011;75676;49.522;19.724;2024-03-07T08:17:39;37.08;;;13.90;;
85265;SDS011;75676;49.522;19.724;2024-03-07T08:20:08;36.85;;;12.80;;
85265;SDS011;75676;49.522;19.724;2024-03-07T08:22:37;44.72;;;16.77;;
85265;SDS011;75676;49.522;19.724;2024-03-07T08:25:10;52.67;;;19.88;;
85265;SDS011;75676;49.522;19.724;2024-03-07T08:27:40;35.33;;;11.15;;
85265;SDS011;75676;49.522;19.724;2024-03-07T08:30:11;33.90;;;12.75;;
85265;SDS011;75676;49.522;19.724;2024-03-07T08:32:50;39.05;;;15.02;;
85265;SDS011;75676;49.522;19.724;2024-03-07T08:35:20;55.97;;;17.77;;
85265;SDS011;75676;49.522;19.724;2024-03-07T08:37:47;39.90;;;17.15;;
85265;SDS011;75676;49.522;19.724;2024-03-07T08:40:18;48.00;;;17.92;;
85265;SDS011;75676;49.522;19.724;2024-03-07T08:42:52;50.15;;;17.58;;
85265;SDS011;75676;49.522;19.724;2024-03-07T08:45:21;47.25;;;16.70;;
85265;SDS011;75676;49.522;19.724;2024-03-07T08:47:48;51.88;;;17.63;;
85265;SDS011;75676;49.522;19.724;2024-03-07T08:50:16;51.75;;;20.80;;
85265;SDS011;75676;49.522;19.724;2024-03-07T08:52:46;36.70;;;13.73;;
85265;SDS011;75676;49.522;19.724;2024-03-07T08:55:16;46.60;;;14.85;;
85265;SDS011;75676;49.522;19.724;2024-03-07T08:57:44;42.65;;;17.50;;
85265;SDS011;75676;49.522;19.724;2024-03-07T09:00:12;37.47;;;15.77;;
85265;SDS011;75676;49.522;19.724;2024-03-07T09:02:51;39.50;;;15.90;;
85265;SDS011;75676;49.522;19.724;2024-03-07T09:05:20;44.05;;;18.13;;
85265;SDS011;75676;49.522;19.724;2024-03-07T09:07:47;34.90;;;12.25;;
85265;SDS011;75676;49.522;19.724;2024-03-07T09:10:14;40.83;;;14.50;;
85265;SDS011;75676;49.522;19.724;2024-03-07T09:12:40;44.78;;;15.82;;
85265;SDS011;75676;49.522;19.724;2024-03-07T09:15:07;44.35;;;18.13;;
85265;SDS011;75676;49.522;19.724;2024-03-07T09:17:35;39.78;;;13.45;;
85265;SDS011;75676;49.522;19.724;2024-03-07T09:20:05;50.17;;;17.33;;
85265;SDS011;75676;49.522;19.724;2024-03-07T09:22:31;47.17;;;15.85;;
85265;SDS011;75676;49.522;19.724;2024-03-07T09:24:58;47.75;;;17.98;;
85265;SDS011;75676;49.522;19.724;2024-03-07T09:27:24;54.83;;;16.63;;
85265;SDS011;75676;49.522;19.724;2024-03-07T09:29:50;47.00;;;15.93;;
85265;SDS011;75676;49.522;19.724;2024-03-07T09:32:17;44.95;;;16.60;;
85265;SDS011;75676;49.522;19.724;2024-03-07T09:34:43;40.47;;;13.35;;
85265;SDS011;75676;49.522;19.724;2024-03-07T09:37:09;40.95;;;15.55;;
85265;SDS011;75676;49.522;19.724;2024-03-07T09:39:34;33.17;;;12.35;;
85265;SDS011;75676;49.522;19.724;2024-03-07T09:42:02;43.20;;;15.10;;
85265;SDS011;75676;49.522;19.724;2024-03-07T09:44:28;48.17;;;14.63;;
85265;SDS011;75676;49.522;19.724;2024-03-07T09:46:57;56.53;;;17.83;;
85265;SDS011;75676;49.522;19.724;2024-03-07T09:49:24;55.15;;;18.60;;
85265;SDS011;75676;49.522;19.724;2024-03-07T09:51:53;48.50;;;14.57;;
85265;SDS011;75676;49.522;19.724;2024-03-07T09:54:25;55.85;;;18.13;;
85265;SDS011;75676;49.522;19.724;2024-03-07T09:56:51;51.17;;;16.23;;
85265;SDS011;75676;49.522;19.724;2024-03-07T09:59:19;53.40;;;17.88;;
85265;SDS011;75676;49.522;19.724;2024-03-07T10:01:48;54.50;;;19.10;;
85265;SDS011;75676;49.522;19.724;2024-03-07T10:04:18;50.80;;;17.85;;
85265;SDS011;75676;49.522;19.724;2024-03-07T10:07:02;42.20;;;14.23;;
85265;SDS011;75676;49.522;19.724;2024-03-07T10:09:29;50.60;;;16.33;;
85265;SDS011;75676;49.522;19.724;2024-03-07T10:11:57;42.15;;;15.50;;
85265;SDS011;75676;49.522;19.724;2024-03-07T10:14:24;53.03;;;17.65;;
85265;SDS011;75676;49.522;19.724;2024-03-07T10:16:53;54.25;;;16.55;;
85265;SDS011;75676;49.522;19.724;2024-03-07T10:19:22;53.03;;;16.30;;
85265;SDS011;75676;49.522;19.724;2024-03-07T10:21:48;44.35;;;16.77;;
85265;SDS011;75676;49.522;19.724;2024-03-07T10:24:13;54.08;;;16.83;;
85265;SDS011;75676;49.522;19.724;2024-03-07T10:26:39;53.80;;;16.90;;
85265;SDS011;75676;49.522;19.724;2024-03-07T10:29:06;51.25;;;19.35;;
85265;SDS011;75676;49.522;19.724;2024-03-07T10:31:37;64.88;;;19.73;;
85265;SDS011;75676;49.522;19.724;2024-03-07T10:34:03;58.75;;;18.40;;
85265;SDS011;75676;49.522;19.724;2024-03-07T10:36:32;48.08;;;16.67;;
85265;SDS011;75676;49.522;19.724;2024-03-07T10:39:02;41.03;;;16.33;;
85265;SDS011;75676;49.522;19.724;2024-03-07T10:41:44;51.78;;;15.57;;
85265;SDS011;75676;49.522;19.724;2024-03-07T10:44:18;41.95;;;15.30;;
85265;SDS011;75676;49.522;19.724;2024-03-07T10:46:54;47.80;;;17.13;;
85265;SDS011;75676;49.522;19.724;2024-03-07T10:49:22;41.83;;;13.52;;
85265;SDS011;75676;49.522;19.724;2024-03-07T10:52:06;49.97;;;17.77;;
85265;SDS011;75676;49.522;19.724;2024-03-07T10:54:39;51.58;;;16.33;;
85265;SDS011;75676;49.522;19.724;2024-03-07T10:57:23;54.83;;;18.23;;
85265;SDS011;75676;49.522;19.724;2024-03-07T11:00:00;57.45;;;19.55;;
85265;SDS011;75676;49.522;19.724;2024-03-07T11:05:16;63.97;;;18.58;;
85265;SDS011;75676;49.522;19.724;2024-03-07T11:07:43;52.03;;;18.25;;
85265;SDS011;75676;49.522;19.724;2024-03-07T11:10:10;53.85;;;19.40;;
85265;SDS011;75676;49.522;19.724;2024-03-07T11:12:38;50.20;;;17.40;;
85265;SDS011;75676;49.522;19.724;2024-03-07T11:15:06;43.25;;;14.80;;
85265;SDS011;75676;49.522;19.724;2024-03-07T11:17:43;55.97;;;19.70;;
85265;SDS011;75676;49.522;19.724;2024-03-07T11:22:53;56.40;;;18.13;;
85265;SDS011;75676;49.522;19.724;2024-03-07T11:25:20;47.78;;;15.18;;
85265;SDS011;75676;49.522;19.724;2024-03-07T11:27:52;48.30;;;18.55;;
85265;SDS011;75676;49.522;19.724;2024-03-07T11:30:21;51.38;;;18.75;;
85265;SDS011;75676;49.522;19.724;2024-03-07T11:32:48;48.72;;;17.75;;
85265;SDS011;75676;49.522;19.724;2024-03-07T11:35:30;54.72;;;18.88;;
85265;SDS011;75676;49.522;19.724;2024-03-07T11:38:02;54.83;;;19.10;;
85265;SDS011;75676;49.522;19.724;2024-03-07T11:42:58;53.20;;;17.60;;
85265;SDS011;75676;49.522;19.724;2024-03-07T11:45:30;63.92;;;20.33;;
85265;SDS011;75676;49.522;19.724;2024-03-07T11:48:03;59.10;;;18.45;;
85265;SDS011;75676;49.522;19.724;2024-03-07T11:50:35;50.08;;;17.50;;
85265;SDS011;75676;49.522;19.724;2024-03-07T11:53:02;53.78;;;19.38;;
85265;SDS011;75676;49.522;19.724;2024-03-07T11:55:32;55.42;;;19.95;;
85265;SDS011;75676;49.522;19.724;2024-03-07T11:58:16;45.65;;;16.90;;
85265;SDS011;75676;49.522;19.724;2024-03-07T12:00:43;51.97;;;19.42;;
85265;SDS011;75676;49.522;19.724;2024-03-07T12:03:13;58.92;;;21.67;;
85265;SDS011;75676;49.522;19.724;2024-03-07T12:05:40;56.03;;;20.38;;
85265;SDS011;75676;49.522;19.724;2024-03-07T12:08:07;53.17;;;18.75;;
85265;SDS011;75676;49.522;19.724;2024-03-07T12:10:35;47.78;;;17.60;;
85265;SDS011;75676;49.522;19.724;2024-03-07T12:13:03;53.05;;;15.90;;
85265;SDS011;75676;49.522;19.724;2024-03-07T12:15:29;55.67;;;17.67;;
85265;SDS011;75676;49.522;19.724;2024-03-07T12:17:55;66.90;;;20.08;;
85265;SDS011;75676;49.522;19.724;2024-03-07T12:20:23;58.00;;;19.70;;
85265;SDS011;75676;49.522;19.724;2024-03-07T12:23:01;54.35;;;19.75;;
85265;SDS011;75676;49.522;19.724;2024-03-07T12:25:29;62.25;;;21.00;;
85265;SDS011;75676;49.522;19.724;2024-03-07T12:30:47;63.38;;;21.17;;
85265;SDS011;75676;49.522;19.724;2024-03-07T12:33:15;61.85;;;24.85;;
85265;SDS011;75676;49.522;19.724;2024-03-07T12:35:46;54.08;;;20.30;;
85265;SDS011;75676;49.522;19.724;2024-03-07T12:38:15;56.17;;;20.17;;
85265;SDS011;75676;49.522;19.724;2024-03-07T12:40:42;54.97;;;19.45;;
85265;SDS011;75676;49.522;19.724;2024-03-07T12:43:18;60.08;;;22.42;;
85265;SDS011;75676;49.522;19.724;2024-03-07T12:45:49;69.07;;;24.38;;
85265;SDS011;75676;49.522;19.724;2024-03-07T12:48:19;63.63;;;22.70;;
85265;SDS011;75676;49.522;19.724;2024-03-07T12:50:49;59.17;;;22.05;;
85265;SDS011;75676;49.522;19.724;2024-03-07T12:53:22;65.57;;;23.17;;
85265;SDS011;75676;49.522;19.724;2024-03-07T12:55:50;52.42;;;19.02;;
85265;SDS011;75676;49.522;19.724;2024-03-07T12:58:17;60.22;;;20.88;;
85265;SDS011;75676;49.522;19.724;2024-03-07T13:00:45;59.88;;;21.27;;
85265;SDS011;75676;49.522;19.724;2024-03-07T13:03:11;65.95;;;24.38;;
85265;SDS011;75676;49.522;19.724;2024-03-07T13:05:40;72.50;;;27.73;;
85265;SDS011;75676;49.522;19.724;2024-03-07T13:08:09;79.97;;;28.88;;
85265;SDS011;75676;49.522;19.724;2024-03-07T13:10:41;69.72;;;25.27;;
85265;SDS011;75676;49.522;19.724;2024-03-07T13:13:08;77.47;;;27.92;;
85265;SDS011;75676;49.522;19.724;2024-03-07T13:15:38;64.18;;;25.90;;
85265;SDS011;75676;49.522;19.724;2024-03-07T13:18:07;63.30;;;23.33;;
85265;SDS011;75676;49.522;19.724;2024-03-07T13:20:34;67.85;;;24.88;;
85265;SDS011;75676;49.522;19.724;2024-03-07T13:23:01;65.60;;;23.13;;
85265;SDS011;75676;49.522;19.724;2024-03-07T13:25:28;43.40;;;15.13;;
85265;SDS011;75676;49.522;19.724;2024-03-07T13:28:02;71.20;;;24.27;;
85265;SDS011;75676;49.522;19.724;2024-03-07T13:30:34;71.05;;;23.90;;
85265;SDS011;75676;49.522;19.724;2024-03-07T13:33:01;55.63;;;19.83;;
85265;SDS011;75676;49.522;19.724;2024-03-07T13:35:28;61.53;;;18.98;;
85265;SDS011;75676;49.522;19.724;2024-03-07T13:37:55;52.35;;;17.80;;
85265;SDS011;75676;49.522;19.724;2024-03-07T13:40:22;67.53;;;20.45;;
85265;SDS011;75676;49.522;19.724;2024-03-07T13:42:56;52.78;;;18.83;;
85265;SDS011;75676;49.522;19.724;2024-03-07T13:45:28;70.13;;;21.05;;
85265;SDS011;75676;49.522;19.724;2024-03-07T13:48:02;60.35;;;21.05;;
85265;SDS011;75676;49.522;19.724;2024-03-07T13:50:30;53.50;;;19.77;;
85265;SDS011;75676;49.522;19.724;2024-03-07T13:52:58;67.05;;;22.55;;
85265;SDS011;75676;49.522;19.724;2024-03-07T13:58:17;71.13;;;23.80;;
85265;SDS011;75676;49.522;19.724;2024-03-07T14:07:20;60.63;;;20.40;;
85265;SDS011;75676;49.522;19.724;2024-03-07T14:19:30;45.83;;;18.40;;
85265;SDS011;75676;49.522;19.724;2024-03-07T14:32:51;61.15;;;18.17;;
85265;SDS011;75676;49.522;19.724;2024-03-07T14:35:25;63.30;;;23.27;;
85265;SDS011;75676;49.522;19.724;2024-03-07T14:38:05;59.75;;;19.98;;
85265;SDS011;75676;49.522;19.724;2024-03-07T14:40:55;63.47;;;22.02;;
85265;SDS011;75676;49.522;19.724;2024-03-07T14:43:22;41.20;;;15.70;;
85265;SDS011;75676;49.522;19.724;2024-03-07T14:45:49;64.63;;;22.42;;
85265;SDS011;75676;49.522;19.724;2024-03-07T14:48:16;60.30;;;21.30;;
85265;SDS011;75676;49.522;19.724;2024-03-07T14:50:44;55.67;;;21.65;;
85265;SDS011;75676;49.522;19.724;2024-03-07T14:53:12;59.58;;;20.52;;
85265;SDS011;75676;49.522;19.724;2024-03-07T14:55:38;61.72;;;20.95;;
85265;SDS011;75676;49.522;19.724;2024-03-07T14:58:07;43.47;;;16.33;;
85265;SDS011;75676;49.522;19.724;2024-03-07T15:00:36;55.40;;;18.95;;
85265;SDS011;75676;49.522;19.724;2024-03-07T15:03:07;58.63;;;20.58;;
85265;SDS011;75676;49.522;19.724;2024-03-07T15:05:42;60.17;;;22.00;;
85265;SDS011;75676;49.522;19.724;2024-03-07T15:08:17;59.33;;;21.95;;